createdAt,value
2022-10-07T04:31:05.860Z,94.33
2022-10-07T04:32:05.757Z,93.61
2022-10-07T04:33:05.751Z,93.96
2022-10-07T04:34:05.725Z,94.12
2022-10-07T04:35:05.730Z,94.12
2022-10-07T04:36:05.701Z,94.27
2022-10-07T04:37:05.709Z,94.27
2022-10-07T04:38:05.686Z,93.96
2022-10-07T04:39:05.668Z,94.48
2022-10-07T04:40:05.654Z,94.48
2022-10-07T04:41:05.642Z,94.58
2022-10-07T04:42:05.654Z,94.68
2022-10-07T04:43:05.645Z,94.78
2022-10-07T04:44:05.614Z,94.17
2022-10-07T04:45:05.603Z,94.89
2022-10-07T04:46:05.612Z,95.20
2022-10-07T04:47:05.685Z,94.68
2022-10-07T04:48:05.571Z,94.78
2022-10-07T04:49:05.569Z,94.58
2022-10-07T04:50:05.571Z,94.58
2022-10-07T04:51:05.564Z,94.78
2022-10-07T04:52:05.526Z,94.89
2022-10-07T04:53:05.519Z,94.89
2022-10-07T04:54:05.506Z,94.78
2022-10-07T04:55:05.502Z,94.37
2022-10-07T04:56:05.502Z,94.58
2022-10-07T04:57:05.471Z,94.37
2022-10-07T04:58:05.461Z,94.07
2022-10-07T04:59:05.475Z,93.82
2022-10-07T05:00:05.439Z,94.37
2022-10-07T05:01:05.483Z,93.96
2022-10-07T05:02:05.503Z,94.17
2022-10-07T05:03:05.428Z,94.33
2022-10-07T05:04:05.395Z,94.07
2022-10-07T05:05:05.387Z,94.02
2022-10-07T05:06:06.141Z,94.17
2022-10-07T05:07:05.365Z,93.86
2022-10-07T05:08:05.376Z,94.07
2022-10-07T05:09:05.345Z,93.96
2022-10-07T05:10:05.332Z,94.07
2022-10-07T05:11:05.319Z,93.96
2022-10-07T05:12:05.335Z,94.27
2022-10-07T05:13:05.296Z,94.17
2022-10-07T05:14:05.315Z,94.27
2022-10-07T05:15:05.282Z,94.07
2022-10-07T05:16:05.323Z,94.27
2022-10-07T05:17:05.297Z,94.17
2022-10-07T05:18:05.254Z,94.17
2022-10-07T05:19:05.251Z,94.21
2022-10-07T05:20:05.223Z,94.11
2022-10-07T05:21:05.212Z,94.37
2022-10-07T05:22:05.219Z,94.37
2022-10-07T05:23:05.190Z,93.65
2022-10-07T05:24:05.200Z,94.11
2022-10-07T05:25:05.168Z,94.78
2022-10-07T05:26:05.174Z,94.62
2022-10-07T05:27:05.143Z,94.58
2022-10-07T05:28:05.211Z,94.42
2022-10-07T05:29:05.135Z,94.27
2022-10-07T05:30:05.121Z,94.42
2022-10-07T05:31:05.227Z,94.37
2022-10-07T05:32:05.460Z,94.58
2022-10-07T05:33:05.080Z,94.27
2022-10-07T05:34:05.093Z,93.96
2022-10-07T05:35:05.075Z,94.73
2022-10-07T05:36:05.062Z,94.17
2022-10-07T05:37:05.051Z,94.07
2022-10-07T05:38:05.025Z,94.31
2022-10-07T05:39:05.034Z,94.37
2022-10-07T05:40:05.008Z,94.11
2022-10-07T05:41:04.992Z,94.11
2022-10-07T05:42:05.012Z,93.86
2022-10-07T05:43:04.973Z,93.96
2022-10-07T05:44:04.979Z,94.17
2022-10-07T05:45:04.956Z,94.01
2022-10-07T05:46:05.040Z,94.31
2022-10-07T05:47:04.949Z,93.80
2022-10-07T05:48:04.927Z,94.11
2022-10-07T05:49:04.905Z,94.42
2022-10-07T05:50:04.917Z,94.01
2022-10-07T05:51:04.898Z,94.11
2022-10-07T05:52:04.873Z,94.11
2022-10-07T05:53:04.863Z,94.46
2022-10-07T05:54:04.863Z,94.01
2022-10-07T05:55:04.869Z,94.11
2022-10-07T05:56:04.828Z,94.11
2022-10-07T05:57:04.818Z,94.01
2022-10-07T05:58:04.808Z,94.11
2022-10-07T05:59:04.800Z,94.36
2022-10-07T06:00:04.795Z,93.90
2022-10-07T06:01:07.726Z,94.11
2022-10-07T06:02:05.877Z,94.42
2022-10-07T06:03:04.979Z,94.01
2022-10-07T06:04:04.776Z,93.74
2022-10-07T06:05:04.737Z,94.21
2022-10-07T06:06:04.727Z,94.11
2022-10-07T06:07:04.791Z,94.15
2022-10-07T06:08:04.699Z,94.05
2022-10-07T06:09:04.693Z,94.15
2022-10-07T06:10:04.677Z,94.26
2022-10-07T06:11:04.667Z,94.46
2022-10-07T06:12:04.679Z,94.46
2022-10-07T06:13:04.657Z,94.36
2022-10-07T06:14:04.632Z,94.98
2022-10-07T06:15:04.651Z,95.08
2022-10-07T06:16:04.609Z,94.87
2022-10-07T06:17:04.738Z,94.77
2022-10-07T06:18:04.599Z,95.03
2022-10-07T06:19:04.606Z,95.14
2022-10-07T06:20:04.635Z,94.27
2022-10-07T06:21:04.589Z,94.27
2022-10-07T06:22:04.545Z,94.27
2022-10-07T06:23:04.556Z,94.07
2022-10-07T06:24:04.541Z,94.27
2022-10-07T06:25:04.514Z,93.86
2022-10-07T06:26:04.503Z,94.37
2022-10-07T06:27:04.522Z,93.82
2022-10-07T06:28:04.536Z,93.04
2022-10-07T06:29:04.469Z,93.51
2022-10-07T06:30:04.465Z,93.51
2022-10-07T06:31:04.490Z,93.40
2022-10-07T06:32:04.448Z,93.40
2022-10-07T06:33:04.446Z,92.79
2022-10-07T06:34:04.417Z,92.74
2022-10-07T06:35:04.401Z,92.69
2022-10-07T06:36:04.736Z,92.64
2022-10-07T06:37:04.407Z,92.69
2022-10-07T06:38:04.392Z,92.58
2022-10-07T06:39:04.389Z,92.69
2022-10-07T06:40:04.347Z,92.48
2022-10-07T06:41:04.354Z,92.58
2022-10-07T06:42:04.327Z,92.48
2022-10-07T06:43:04.333Z,92.99
2022-10-07T06:44:04.304Z,93.30
2022-10-07T06:45:04.297Z,93.20
2022-10-07T06:46:04.463Z,92.64
2022-10-07T06:47:07.868Z,92.74
2022-10-07T06:48:05.282Z,93.26
2022-10-07T06:49:04.250Z,93.36
2022-10-07T06:50:04.238Z,92.74
2022-10-07T06:51:04.231Z,92.44
2022-10-07T06:52:04.237Z,92.60
2022-10-07T06:53:04.237Z,92.25
2022-10-07T06:54:04.230Z,92.04
2022-10-07T06:55:04.204Z,91.84
2022-10-07T06:56:04.173Z,91.22
2022-10-07T06:57:20.416Z,90.97
2022-10-07T06:58:10.559Z,90.56
2022-10-07T06:59:05.192Z,90.77
2022-10-07T07:00:04.130Z,90.26
2022-10-07T07:01:04.153Z,89.81
2022-10-07T07:02:04.141Z,89.97
2022-10-07T07:03:04.097Z,89.45
2022-10-07T07:04:04.091Z,89.15
2022-10-07T07:05:04.106Z,89.00
2022-10-07T07:06:04.069Z,88.14
2022-10-07T07:07:04.052Z,87.84
2022-10-07T07:08:04.042Z,87.12
2022-10-07T07:09:04.033Z,87.32
2022-10-07T07:10:04.021Z,87.18
2022-10-07T07:11:04.080Z,87.08
2022-10-07T07:12:04.005Z,86.94
2022-10-07T07:13:03.999Z,86.94
2022-10-07T07:14:03.976Z,86.02
2022-10-07T07:15:03.963Z,85.47
2022-10-07T07:16:03.957Z,84.95
2022-10-07T07:17:04.085Z,85.06
2022-10-07T07:18:03.957Z,85.67
2022-10-07T07:19:03.922Z,84.95
2022-10-07T07:20:03.912Z,84.91
2022-10-07T07:21:03.900Z,84.50
2022-10-07T07:22:03.889Z,85.06
2022-10-07T07:23:03.911Z,84.55
2022-10-07T07:24:03.907Z,84.71
2022-10-07T07:25:03.864Z,84.91
2022-10-07T07:26:03.843Z,84.50
2022-10-07T07:27:03.892Z,85.02
2022-10-07T07:28:03.906Z,84.71
2022-10-07T07:29:03.853Z,84.61
2022-10-07T07:30:03.808Z,84.77
2022-10-07T07:31:03.863Z,84.06
2022-10-07T07:32:03.778Z,84.26
2022-10-07T07:33:03.768Z,83.85
2022-10-07T07:34:03.752Z,83.04
2022-10-07T07:35:03.816Z,83.89
2022-10-07T07:36:03.752Z,85.12
2022-10-07T07:37:03.740Z,84.50
2022-10-07T07:38:03.712Z,83.85
2022-10-07T07:39:03.705Z,83.85
2022-10-07T07:40:03.693Z,83.69
2022-10-07T07:41:03.709Z,84.06
2022-10-07T07:42:03.670Z,83.75
2022-10-07T07:43:03.691Z,83.54
2022-10-07T07:44:03.649Z,84.63
2022-10-07T07:45:03.647Z,84.69
2022-10-07T07:46:03.672Z,83.47
2022-10-07T07:47:03.619Z,82.96
2022-10-07T07:48:03.649Z,82.96
2022-10-07T07:49:03.603Z,82.89
2022-10-07T07:50:04.344Z,83.00
2022-10-07T07:51:03.571Z,83.87
2022-10-07T07:52:03.584Z,83.37
2022-10-07T07:53:03.559Z,83.53
2022-10-07T07:54:03.538Z,82.78
2022-10-07T07:55:03.522Z,82.78
2022-10-07T07:56:03.527Z,82.43
2022-10-07T07:57:03.528Z,81.82
2022-10-07T07:58:03.493Z,82.29
2022-10-07T07:59:03.523Z,80.46
2022-10-07T08:00:03.473Z,80.46
2022-10-07T08:01:03.586Z,81.17
2022-10-07T08:02:03.479Z,80.77
2022-10-07T08:03:03.444Z,80.97
2022-10-07T08:04:03.427Z,80.70
2022-10-07T08:05:03.458Z,80.50
2022-10-07T08:06:03.407Z,80.66
2022-10-07T08:07:03.396Z,81.17
2022-10-07T08:08:03.391Z,81.65
2022-10-07T08:09:03.373Z,80.83
2022-10-07T08:10:03.395Z,81.04
2022-10-07T08:11:03.374Z,80.29
2022-10-07T08:12:03.341Z,79.91
2022-10-07T08:13:03.358Z,80.73
2022-10-07T08:14:03.315Z,80.83
2022-10-07T08:15:03.331Z,81.24
2022-10-07T08:16:03.415Z,80.52
2022-10-07T08:17:03.287Z,81.17
2022-10-07T08:18:03.301Z,81.95
2022-10-07T08:19:03.263Z,81.20
2022-10-07T08:20:03.269Z,79.88
2022-10-07T08:21:03.265Z,80.49
2022-10-07T08:22:03.237Z,80.79
2022-10-07T08:23:03.216Z,80.99
2022-10-07T08:24:03.212Z,80.76
2022-10-07T08:25:03.218Z,80.65
2022-10-07T08:26:03.180Z,79.80
2022-10-07T08:27:03.192Z,79.57
2022-10-07T08:28:03.201Z,80.76
2022-10-07T08:29:03.148Z,80.41
2022-10-07T08:30:03.169Z,79.09
2022-10-07T08:31:03.224Z,79.09
2022-10-07T08:32:03.136Z,78.95
2022-10-07T08:33:03.108Z,79.25
2022-10-07T08:34:03.109Z,78.44
2022-10-07T08:35:03.083Z,77.53
2022-10-07T08:36:03.070Z,79.66
2022-10-07T08:37:03.087Z,79.66
2022-10-07T08:38:03.049Z,78.71
2022-10-07T08:39:03.035Z,78.51
2022-10-07T08:40:03.031Z,77.12
2022-10-07T08:41:03.016Z,78.04
2022-10-07T08:42:03.029Z,78.08
2022-10-07T08:43:03.005Z,78.04
2022-10-07T08:44:06.237Z,79.66
2022-10-07T08:45:02.977Z,78.00
2022-10-07T08:46:03.011Z,78.51
2022-10-07T08:47:03.006Z,78.17
2022-10-07T08:48:02.937Z,77.32
2022-10-07T08:49:02.927Z,76.87
2022-10-07T08:50:02.945Z,76.94
2022-10-07T08:51:02.923Z,75.73
2022-10-07T08:52:02.925Z,75.79
2022-10-07T08:53:02.885Z,74.84
2022-10-07T08:54:02.870Z,74.91
2022-10-07T08:55:02.886Z,73.22
2022-10-07T08:56:02.861Z,73.32
2022-10-07T08:57:02.844Z,74.24
2022-10-07T08:58:02.857Z,73.69
2022-10-07T08:59:02.819Z,73.73
2022-10-07T09:00:02.814Z,74.88
2022-10-07T09:01:02.895Z,74.44
2022-10-07T09:02:02.783Z,74.68
2022-10-07T09:03:02.815Z,74.84
2022-10-07T09:04:02.791Z,73.43
2022-10-07T09:05:02.775Z,74.13
2022-10-07T09:06:02.746Z,74.91
2022-10-07T09:07:02.736Z,74.30
2022-10-07T09:08:02.717Z,73.59
2022-10-07T09:09:02.709Z,73.59
2022-10-07T09:10:02.743Z,73.29
2022-10-07T09:11:07.227Z,73.86
2022-10-07T09:12:03.675Z,74.37
2022-10-07T09:13:02.664Z,73.32
2022-10-07T09:14:02.680Z,72.81
2022-10-07T09:15:02.649Z,74.30
2022-10-07T09:16:02.692Z,74.16
2022-10-07T09:17:02.636Z,73.69
2022-10-07T09:18:02.618Z,74.40
2022-10-07T09:19:02.671Z,74.67
2022-10-07T09:20:02.590Z,75.68
2022-10-07T09:21:02.602Z,73.63
2022-10-07T09:22:02.612Z,73.49
2022-10-07T09:23:02.557Z,74.16
2022-10-07T09:24:02.551Z,73.25
2022-10-07T09:25:03.159Z,72.64
2022-10-07T09:26:02.539Z,72.55
2022-10-07T09:27:02.539Z,72.55
2022-10-07T09:28:02.553Z,73.05
2022-10-07T09:29:02.494Z,72.78
2022-10-07T09:30:02.482Z,73.39
2022-10-07T09:31:02.591Z,72.88
2022-10-07T09:32:02.464Z,73.49
2022-10-07T09:33:02.446Z,72.75
2022-10-07T09:34:02.459Z,73.05
2022-10-07T09:35:02.440Z,73.35
2022-10-07T09:36:02.408Z,73.15
2022-10-07T09:37:02.401Z,72.34
2022-10-07T09:38:02.413Z,72.91
2022-10-07T09:39:02.398Z,71.23
2022-10-07T09:40:02.393Z,72.08
2022-10-07T09:41:02.358Z,72.88
2022-10-07T09:42:02.347Z,72.51
2022-10-07T09:43:02.344Z,73.22
2022-10-07T09:44:02.340Z,73.39
2022-10-07T09:45:02.346Z,72.88
2022-10-07T09:46:02.360Z,72.92
2022-10-07T09:47:02.293Z,72.78
2022-10-07T09:48:02.301Z,73.19
2022-10-07T09:49:02.268Z,73.39
2022-10-07T09:50:02.278Z,73.46
2022-10-07T09:51:02.264Z,72.11
2022-10-07T09:52:02.250Z,72.81
2022-10-07T09:53:02.279Z,72.27
2022-10-07T09:54:02.214Z,71.47
2022-10-07T09:55:02.227Z,72.27
2022-10-07T09:56:02.189Z,72.07
2022-10-07T09:57:02.198Z,72.54
2022-10-07T09:58:02.177Z,72.24
2022-10-07T09:59:02.177Z,72.20
2022-10-07T10:00:02.151Z,71.47
2022-10-07T10:01:02.166Z,70.66
2022-10-07T10:02:02.211Z,68.44
2022-10-07T10:03:05.203Z,69.95
2022-10-07T10:04:02.107Z,68.95
2022-10-07T10:05:02.109Z,70.39
2022-10-07T10:06:02.093Z,70.89
2022-10-07T10:07:02.104Z,68.98
2022-10-07T10:08:02.086Z,70.19
2022-10-07T10:09:02.052Z,70.76
2022-10-07T10:10:02.051Z,70.66
2022-10-07T10:11:02.045Z,69.82
2022-10-07T10:12:02.052Z,69.55
2022-10-07T10:13:02.045Z,69.75
2022-10-07T10:14:02.002Z,68.85
2022-10-07T10:15:01.984Z,69.12
2022-10-07T10:16:02.094Z,68.54
2022-10-07T10:17:01.974Z,69.08
2022-10-07T10:18:01.974Z,69.79
2022-10-07T10:19:01.942Z,69.55
2022-10-07T10:20:01.933Z,68.44
2022-10-07T10:21:01.917Z,68.31
2022-10-07T10:22:01.933Z,68.81
2022-10-07T10:23:01.918Z,67.60
2022-10-07T10:24:01.891Z,69.55
2022-10-07T10:25:01.878Z,70.66
2022-10-07T10:26:01.864Z,70.73
2022-10-07T10:27:01.878Z,69.72
2022-10-07T10:28:01.876Z,68.38
2022-10-07T10:29:01.860Z,68.41
2022-10-07T10:30:01.879Z,68.28
2022-10-07T10:31:01.829Z,67.50
2022-10-07T10:32:01.803Z,68.41
2022-10-07T10:33:01.806Z,68.14
2022-10-07T10:34:01.802Z,68.95
2022-10-07T10:35:01.785Z,68.44
2022-10-07T10:36:01.765Z,69.15
2022-10-07T10:37:01.742Z,69.21
2022-10-07T10:38:01.733Z,68.28
2022-10-07T10:39:01.737Z,67.84
2022-10-07T10:40:01.737Z,68.24
2022-10-07T10:41:01.740Z,67.03
2022-10-07T10:42:01.693Z,66.50
2022-10-07T10:43:01.688Z,66.71
2022-10-07T10:44:01.669Z,66.00
2022-10-07T10:45:01.681Z,66.71
2022-10-07T10:46:01.647Z,66.60
2022-10-07T10:47:01.746Z,65.47
2022-10-07T10:48:01.626Z,66.47
2022-10-07T10:49:01.683Z,63.85
2022-10-07T10:50:01.604Z,63.85
2022-10-07T10:51:01.591Z,62.78
2022-10-07T10:52:01.607Z,63.48
2022-10-07T10:53:01.596Z,63.25
2022-10-07T10:54:01.561Z,63.35
2022-10-07T10:55:01.576Z,64.16
2022-10-07T10:56:01.546Z,62.75
2022-10-07T10:57:01.528Z,62.18
2022-10-07T10:58:01.565Z,64.92
2022-10-07T10:59:01.504Z,64.72
2022-10-07T11:00:01.532Z,63.21
2022-10-07T11:01:01.514Z,65.39
2022-10-07T11:02:01.607Z,62.85
2022-10-07T11:03:01.504Z,61.44
2022-10-07T11:04:01.458Z,62.02
2022-10-07T11:05:01.446Z,62.42
2022-10-07T11:06:01.475Z,61.51
2022-10-07T11:07:01.435Z,61.44
2022-10-07T11:08:02.003Z,61.85
2022-10-07T11:09:01.391Z,60.84
2022-10-07T11:10:02.062Z,63.25
2022-10-07T11:11:01.393Z,63.32
2022-10-07T11:12:01.710Z,62.39
2022-10-07T11:13:01.355Z,62.59
2022-10-07T11:14:01.338Z,59.80
2022-10-07T11:15:02.248Z,60.91
2022-10-07T11:16:01.442Z,59.60
2022-10-07T11:17:01.330Z,60.11
2022-10-07T11:18:01.311Z,59.91
2022-10-07T11:19:01.291Z,61.01
2022-10-07T11:20:01.276Z,59.80
2022-10-07T11:21:01.283Z,60.41
2022-10-07T11:22:01.252Z,59.10
2022-10-07T11:23:01.241Z,60.61
2022-10-07T11:24:01.258Z,62.02
2022-10-07T11:25:01.245Z,59.27
2022-10-07T11:26:01.267Z,58.87
2022-10-07T11:27:01.218Z,58.37
2022-10-07T11:28:01.262Z,57.46
2022-10-07T11:29:01.171Z,57.06
2022-10-07T11:30:01.217Z,57.79
2022-10-07T11:31:01.236Z,59.60
2022-10-07T11:32:01.161Z,58.09
2022-10-07T11:33:01.132Z,58.80
2022-10-07T11:34:01.122Z,59.08
2022-10-07T11:35:01.105Z,58.87
2022-10-07T11:36:01.108Z,58.67
2022-10-07T11:37:01.124Z,57.77
2022-10-07T11:38:01.080Z,59.27
2022-10-07T11:39:01.058Z,58.75
2022-10-07T11:40:01.053Z,59.98
2022-10-07T11:41:01.036Z,57.87
2022-10-07T11:42:01.030Z,58.40
2022-10-07T11:43:01.091Z,58.80
2022-10-07T11:44:01.007Z,59.30
2022-10-07T11:45:00.999Z,59.17
2022-10-07T11:46:00.984Z,58.90
2022-10-07T11:47:01.032Z,58.00
2022-10-07T11:48:00.986Z,57.59
2022-10-07T11:49:00.961Z,58.67
2022-10-07T11:50:00.940Z,58.00
2022-10-07T11:51:00.927Z,60.00
2022-10-07T11:52:00.915Z,59.20
2022-10-07T11:53:00.928Z,58.09
2022-10-07T11:54:00.922Z,58.40
2022-10-07T11:55:00.890Z,58.90
2022-10-07T11:56:00.903Z,60.00
2022-10-07T11:57:00.866Z,58.60
2022-10-07T11:58:00.868Z,59.33
2022-10-07T11:59:00.886Z,58.80
2022-10-07T12:00:00.849Z,59.53
2022-10-07T12:01:00.825Z,59.30
2022-10-07T12:02:00.863Z,59.50
2022-10-07T12:03:00.888Z,59.43
2022-10-07T12:04:02.282Z,60.00
2022-10-07T12:05:00.775Z,58.80
2022-10-07T12:06:00.779Z,59.30
2022-10-07T12:07:00.771Z,57.59
2022-10-07T12:08:00.740Z,59.30
2022-10-07T12:09:00.736Z,59.80
2022-10-07T12:10:00.721Z,57.90
2022-10-07T12:11:02.410Z,58.90
2022-10-07T12:12:00.706Z,58.50
2022-10-07T12:13:00.702Z,59.08
2022-10-07T12:14:00.672Z,59.98
2022-10-07T12:15:00.713Z,58.57
2022-10-07T12:16:00.697Z,59.27
2022-10-07T12:17:00.642Z,58.77
2022-10-07T12:18:00.667Z,58.87
2022-10-07T12:19:00.616Z,57.46
2022-10-07T12:20:00.603Z,57.67
2022-10-07T12:21:00.594Z,57.37
2022-10-07T12:22:00.603Z,57.06
2022-10-07T12:23:00.568Z,57.97
2022-10-07T12:24:00.568Z,58.47
2022-10-07T12:25:00.558Z,57.77
2022-10-07T12:26:00.559Z,57.46
2022-10-07T12:27:00.525Z,58.87
2022-10-07T12:28:01.329Z,60.28
2022-10-07T12:29:00.524Z,58.87
2022-10-07T12:30:00.492Z,59.27
2022-10-07T12:31:00.540Z,57.97
2022-10-07T12:32:00.512Z,58.17
2022-10-07T12:33:00.480Z,61.11
2022-10-07T12:34:00.451Z,61.91
2022-10-07T12:35:00.438Z,63.49
2022-10-07T12:36:00.445Z,63.62
2022-10-07T12:37:00.422Z,61.99
2022-10-07T12:38:00.406Z,62.72
2022-10-07T12:39:00.422Z,63.22
2022-10-07T12:40:00.385Z,62.72
2022-10-07T12:41:00.374Z,62.32
2022-10-07T12:42:00.362Z,63.12
2022-10-07T12:43:00.369Z,63.45
2022-10-07T12:44:00.361Z,64.26
2022-10-07T12:45:00.336Z,63.96
2022-10-07T12:46:00.378Z,64.36
2022-10-07T12:47:00.402Z,63.56
2022-10-07T12:48:00.298Z,63.45
2022-10-07T12:49:00.305Z,64.16
2022-10-07T12:50:00.300Z,63.48
2022-10-07T12:51:00.272Z,64.49
2022-10-07T12:52:00.276Z,64.09
2022-10-07T12:53:00.237Z,64.92
2022-10-07T12:54:00.230Z,64.09
2022-10-07T12:55:00.256Z,65.39
2022-10-07T12:56:00.210Z,64.29
2022-10-07T12:57:00.224Z,63.59
2022-10-07T12:58:00.193Z,63.18
2022-10-07T12:59:00.182Z,63.59
2022-10-07T13:00:00.179Z,64.22
2022-10-07T13:01:00.281Z,64.19
2022-10-07T13:02:00.370Z,64.79
2022-10-07T13:03:00.155Z,64.59
2022-10-07T13:04:00.123Z,64.42
2022-10-07T13:05:00.114Z,64.22
2022-10-07T13:06:00.134Z,65.12
2022-10-07T13:07:00.107Z,64.89
2022-10-07T13:08:00.085Z,64.09
2022-10-07T13:09:00.062Z,64.32
2022-10-07T13:10:00.060Z,64.12
2022-10-07T13:11:00.099Z,64.42
2022-10-07T13:12:00.030Z,65.42
2022-10-07T13:13:00.033Z,65.86
2022-10-07T13:14:00.032Z,64.45
2022-10-07T13:15:00.004Z,65.66
2022-10-07T13:16:00.063Z,65.36
2022-10-07T13:16:59.983Z,65.76
2022-10-07T13:17:59.975Z,65.16
2022-10-07T13:19:00.025Z,65.66
2022-10-07T13:19:59.948Z,65.06
2022-10-07T13:20:59.935Z,65.16
2022-10-07T13:21:59.924Z,65.66
2022-10-07T13:22:59.914Z,65.36
2022-10-07T13:23:59.902Z,64.95
2022-10-07T13:24:59.939Z,65.46
2022-10-07T13:25:59.887Z,65.96
2022-10-07T13:26:59.879Z,65.56
2022-10-07T13:27:59.904Z,65.16
2022-10-07T13:28:59.847Z,65.49
2022-10-07T13:29:59.843Z,64.55
2022-10-07T13:30:59.854Z,65.09
2022-10-07T13:31:59.899Z,65.36
2022-10-07T13:32:59.802Z,65.89
2022-10-07T13:33:59.808Z,65.76
2022-10-07T13:34:59.844Z,65.16
2022-10-07T13:35:59.768Z,65.56
2022-10-07T13:36:59.778Z,66.67
2022-10-07T13:37:59.748Z,65.26
2022-10-07T13:38:59.739Z,65.33
2022-10-07T13:39:59.816Z,64.82
2022-10-07T13:40:59.745Z,65.06
2022-10-07T13:41:59.710Z,66.06
2022-10-07T13:42:59.727Z,64.55
2022-10-07T13:43:59.685Z,64.45
2022-10-07T13:44:59.674Z,64.65
2022-10-07T13:45:59.746Z,65.46
2022-10-07T13:46:59.676Z,66.09
2022-10-07T13:47:59.638Z,65.79
2022-10-07T13:48:59.671Z,66.16
2022-10-07T13:49:59.713Z,65.26
2022-10-07T13:50:59.711Z,66.06
2022-10-07T13:51:59.617Z,65.76
2022-10-07T13:52:59.590Z,65.06
2022-10-07T13:53:59.589Z,65.76
2022-10-07T13:54:59.582Z,65.86
2022-10-07T13:55:59.572Z,65.66
2022-10-07T13:56:59.547Z,65.76
2022-10-07T13:57:59.546Z,65.56
2022-10-07T13:58:59.523Z,65.66
2022-10-07T13:59:59.533Z,66.50
2022-10-07T14:00:59.559Z,66.39
2022-10-07T14:01:59.590Z,66.80
2022-10-07T14:02:59.583Z,66.50
2022-10-07T14:03:59.462Z,66.90
2022-10-07T14:04:59.453Z,66.70
2022-10-07T14:05:59.442Z,66.50
2022-10-07T14:06:59.471Z,65.69
2022-10-07T14:07:59.422Z,65.99
2022-10-07T14:08:59.415Z,66.83
2022-10-07T14:09:59.490Z,66.53
2022-10-07T14:10:59.391Z,65.82
2022-10-07T14:11:59.372Z,65.92
2022-10-07T14:12:59.405Z,65.92
2022-10-07T14:13:59.363Z,66.33
2022-10-07T14:14:59.344Z,66.93
2022-10-07T14:15:59.336Z,66.83
2022-10-07T14:16:59.515Z,67.03
2022-10-07T14:17:59.336Z,68.34
2022-10-07T14:18:59.313Z,67.54
2022-10-07T14:19:59.374Z,68.34
2022-10-07T14:20:59.282Z,68.44
2022-10-07T14:21:59.299Z,68.44
2022-10-07T14:22:59.329Z,67.43
2022-10-07T14:23:59.246Z,67.54
2022-10-07T14:24:59.282Z,67.63
2022-10-07T14:25:59.222Z,68.34
2022-10-07T14:26:59.214Z,66.93
2022-10-07T14:27:59.296Z,67.67
2022-10-07T14:28:59.212Z,68.24
2022-10-07T14:29:59.211Z,68.34
2022-10-07T14:30:59.317Z,68.44
2022-10-07T14:31:59.157Z,68.74
2022-10-07T14:32:59.149Z,68.14
2022-10-07T14:33:59.151Z,68.14
2022-10-07T14:34:59.128Z,68.14
2022-10-07T14:35:59.113Z,68.14
2022-10-07T14:36:59.110Z,68.44
2022-10-07T14:37:59.088Z,68.34
2022-10-07T14:38:59.121Z,69.65
2022-10-07T14:39:59.138Z,69.95
2022-10-07T14:40:59.074Z,68.24
2022-10-07T14:41:59.057Z,69.15
2022-10-07T14:42:59.050Z,69.45
2022-10-07T14:43:59.049Z,70.56
2022-10-07T14:44:59.046Z,70.36
2022-10-07T14:45:59.075Z,68.85
2022-10-07T14:46:59.028Z,69.55
2022-10-07T14:47:58.999Z,70.26
2022-10-07T14:48:58.976Z,69.85
2022-10-07T14:49:59.037Z,69.75
2022-10-07T14:50:58.948Z,69.55
2022-10-07T14:51:58.938Z,70.97
2022-10-07T14:52:58.954Z,70.76
2022-10-07T14:53:58.942Z,69.95
2022-10-07T14:54:58.925Z,69.59
2022-10-07T14:55:58.932Z,69.89
2022-10-07T14:56:58.896Z,70.29
2022-10-07T14:57:58.920Z,70.69
2022-10-07T14:58:58.873Z,71.10
2022-10-07T14:59:58.944Z,70.39
2022-10-07T15:00:58.859Z,70.59
2022-10-07T15:01:58.827Z,70.39
2022-10-07T15:02:58.823Z,70.69
2022-10-07T15:03:58.980Z,70.89
2022-10-07T15:04:58.878Z,71.70
2022-10-07T15:05:58.787Z,70.29
2022-10-07T15:06:58.794Z,70.89
2022-10-07T15:07:58.793Z,70.59
2022-10-07T15:08:58.781Z,71.10
2022-10-07T15:09:58.741Z,71.30
2022-10-07T15:10:58.776Z,71.40
2022-10-07T15:11:58.736Z,72.00
2022-10-07T15:12:58.734Z,71.60
2022-10-07T15:13:58.718Z,70.53
2022-10-07T15:14:58.692Z,71.33
2022-10-07T15:15:58.678Z,70.12
2022-10-07T15:16:58.772Z,70.22
2022-10-07T15:17:58.658Z,70.32
2022-10-07T15:18:58.659Z,70.42
2022-10-07T15:19:58.636Z,70.32
2022-10-07T15:20:58.634Z,71.03
2022-10-07T15:21:58.637Z,70.93
2022-10-07T15:22:58.606Z,71.53
2022-10-07T15:23:58.587Z,70.42
2022-10-07T15:24:58.591Z,69.62
2022-10-07T15:25:58.569Z,69.82
2022-10-07T15:26:58.624Z,68.91
2022-10-07T15:27:58.626Z,69.21
2022-10-07T15:28:58.552Z,69.95
2022-10-07T15:29:58.540Z,70.93
2022-10-07T15:30:58.568Z,70.26
2022-10-07T15:31:58.528Z,71.23
2022-10-07T15:32:58.500Z,71.17
2022-10-07T15:33:58.507Z,69.82
2022-10-07T15:34:58.472Z,70.76
2022-10-07T15:35:58.476Z,70.15
2022-10-07T15:36:58.466Z,70.15
2022-10-07T15:37:58.443Z,69.04
2022-10-07T15:38:58.438Z,69.55
2022-10-07T15:39:58.430Z,70.66
2022-10-07T15:40:58.406Z,71.17
2022-10-07T15:41:58.413Z,71.26
2022-10-07T15:42:58.479Z,72.48
2022-10-07T15:43:58.378Z,70.76
2022-10-07T15:44:58.368Z,72.58
2022-10-07T15:45:58.407Z,73.11
2022-10-07T15:46:58.348Z,74.53
2022-10-07T15:48:00.600Z,73.52
2022-10-07T15:48:58.318Z,73.11
2022-10-07T15:49:58.325Z,74.02
2022-10-07T15:50:58.311Z,74.53
2022-10-07T15:51:58.292Z,74.84
2022-10-07T15:52:58.278Z,73.82
2022-10-07T15:53:58.273Z,73.86
2022-10-07T15:54:58.283Z,73.55
2022-10-07T15:55:58.248Z,72.34
2022-10-07T15:56:58.236Z,73.35
2022-10-07T15:57:58.220Z,73.25
2022-10-07T15:58:58.226Z,72.85
2022-10-07T15:59:58.226Z,72.75
2022-10-07T16:00:58.226Z,72.14
2022-10-07T16:01:58.210Z,72.04
2022-10-07T16:02:58.193Z,72.44
2022-10-07T16:03:58.180Z,72.85
2022-10-07T16:04:58.159Z,73.25
2022-10-07T16:05:58.161Z,72.14
2022-10-07T16:06:58.174Z,71.44
2022-10-07T16:07:58.108Z,71.33
2022-10-07T16:08:58.102Z,72.34
2022-10-07T16:09:58.112Z,72.64
2022-10-07T16:10:58.102Z,72.75
2022-10-07T16:11:58.088Z,72.17
2022-10-07T16:12:58.054Z,72.55
2022-10-07T16:13:58.045Z,70.66
2022-10-07T16:14:58.085Z,71.57
2022-10-07T16:15:58.049Z,71.37
2022-10-07T16:16:58.022Z,71.37
2022-10-07T16:17:58.022Z,70.76
2022-10-07T16:18:58.004Z,70.96
2022-10-07T16:19:58.013Z,70.96
2022-10-07T16:20:57.980Z,71.87
2022-10-07T16:21:57.955Z,71.17
2022-10-07T16:22:57.954Z,70.02
2022-10-07T16:23:57.981Z,70.86
2022-10-07T16:24:57.926Z,71.26
2022-10-07T16:25:57.910Z,68.54
2022-10-07T16:26:57.900Z,70.25
2022-10-07T16:27:57.892Z,71.06
2022-10-07T16:28:57.878Z,68.63
2022-10-07T16:29:57.895Z,69.34
2022-10-07T16:30:57.903Z,68.74
2022-10-07T16:31:59.133Z,71.57
2022-10-07T16:32:57.840Z,70.96
2022-10-07T16:33:57.828Z,69.95
2022-10-07T16:34:57.820Z,69.95
2022-10-07T16:35:57.844Z,70.05
2022-10-07T16:36:57.802Z,68.94
2022-10-07T16:37:57.772Z,68.63
2022-10-07T16:38:57.774Z,69.58
2022-10-07T16:39:57.786Z,70.09
2022-10-07T16:40:57.756Z,69.78
2022-10-07T16:41:57.746Z,70.09
2022-10-07T16:42:57.727Z,70.09
2022-10-07T16:43:57.737Z,72.31
2022-10-07T16:44:57.706Z,71.09
2022-10-07T16:45:57.737Z,71.50
2022-10-07T16:46:57.778Z,71.94
2022-10-07T16:47:57.678Z,71.53
2022-10-07T16:48:57.679Z,71.53
2022-10-07T16:49:57.676Z,71.44
2022-10-07T16:50:57.642Z,71.84
2022-10-07T16:51:57.617Z,72.78
2022-10-07T16:52:57.616Z,72.85
2022-10-07T16:53:57.608Z,73.39
2022-10-07T16:54:57.633Z,74.20
2022-10-07T16:55:57.582Z,75.01
2022-10-07T16:56:57.599Z,75.52
2022-10-07T16:57:57.554Z,75.04
2022-10-07T16:58:57.543Z,74.95
2022-10-07T16:59:57.559Z,75.55
2022-10-07T17:00:57.529Z,75.08
2022-10-07T17:01:57.604Z,75.28
2022-10-07T17:02:57.526Z,75.28
2022-10-07T17:03:57.535Z,75.65
2022-10-07T17:04:57.524Z,75.76
2022-10-07T17:05:57.513Z,75.08
2022-10-07T17:06:57.457Z,74.77
2022-10-07T17:07:57.462Z,75.59
2022-10-07T17:08:57.446Z,76.09
2022-10-07T17:09:57.446Z,76.09
2022-10-07T17:10:57.415Z,77.11
2022-10-07T17:11:57.422Z,76.77
2022-10-07T17:12:57.392Z,76.77
2022-10-07T17:13:57.386Z,76.70
2022-10-07T17:14:57.391Z,76.80
2022-10-07T17:15:57.426Z,76.70
2022-10-07T17:16:57.372Z,76.77
2022-10-07T17:17:57.349Z,77.11
2022-10-07T17:18:57.347Z,77.01
2022-10-07T17:19:57.312Z,76.80
2022-10-07T17:20:57.307Z,76.90
2022-10-07T17:21:57.313Z,76.70
2022-10-07T17:22:57.286Z,76.80